createdAt,value
2022-08-25T00:02:06.614Z,3.15
2022-08-25T00:04:36.958Z,3.08
2022-08-25T00:07:05.940Z,3.00
2022-08-25T00:09:35.950Z,3.50
2022-08-25T00:12:05.390Z,3.33
2022-08-25T00:14:37.869Z,3.13
2022-08-25T00:17:06.481Z,3.28
2022-08-25T00:19:37.935Z,3.28
2022-08-25T00:22:07.196Z,3.17
2022-08-25T00:24:35.503Z,3.20
2022-08-25T00:27:05.800Z,3.00
2022-08-25T00:29:34.166Z,3.20
2022-08-25T00:32:03.149Z,3.30
2022-08-25T00:34:35.579Z,3.60
2022-08-25T00:37:07.347Z,3.63
2022-08-25T00:39:34.572Z,3.70
2022-08-25T00:42:03.180Z,3.60
2022-08-25T00:44:32.292Z,3.55
2022-08-25T00:47:02.818Z,3.25
2022-08-25T00:49:42.155Z,3.60
2022-08-25T00:52:22.954Z,3.88
2022-08-25T00:54:56.658Z,4.03
2022-08-25T00:57:40.328Z,3.90
2022-08-25T01:00:20.959Z,4.18
2022-08-25T01:02:48.605Z,4.10
2022-08-25T01:05:15.866Z,4.30
2022-08-25T01:07:44.730Z,4.07
2022-08-25T01:10:13.466Z,3.88
2022-08-25T01:12:41.477Z,3.78
2022-08-25T01:15:12.959Z,3.70
2022-08-25T01:17:56.749Z,4.53
2022-08-25T01:20:29.552Z,4.00
2022-08-25T01:22:57.935Z,3.90
2022-08-25T01:25:35.448Z,3.72
2022-08-25T01:28:04.055Z,4.65
2022-08-25T01:30:31.496Z,4.57
2022-08-25T01:33:01.094Z,3.80
2022-08-25T01:35:28.074Z,3.63
2022-08-25T01:37:55.154Z,3.80
2022-08-25T01:40:23.180Z,3.78
2022-08-25T01:43:07.596Z,3.85
2022-08-25T01:45:36.724Z,4.07
2022-08-25T01:48:05.672Z,3.88
2022-08-25T01:50:34.323Z,4.32
2022-08-25T01:53:11.886Z,4.22
2022-08-25T01:55:55.841Z,4.30
2022-08-25T01:58:31.537Z,4.25
2022-08-25T02:01:09.331Z,4.25
2022-08-25T02:03:42.594Z,4.20
2022-08-25T02:06:17.924Z,4.30
2022-08-25T02:08:45.903Z,4.80
2022-08-25T02:11:15.973Z,4.72
2022-08-25T02:13:43.268Z,5.05
2022-08-25T02:16:18.588Z,4.25
2022-08-25T02:18:46.431Z,4.78
2022-08-25T02:21:14.786Z,4.80
2022-08-25T02:23:42.789Z,4.43
2022-08-25T02:26:10.757Z,4.25
2022-08-25T02:28:38.190Z,4.60
2022-08-25T02:31:06.032Z,4.15
2022-08-25T02:33:33.149Z,4.35
2022-08-25T02:36:02.122Z,4.70
2022-08-25T02:38:30.610Z,4.13
2022-08-25T02:41:00.775Z,4.55
2022-08-25T02:43:30.440Z,4.40
2022-08-25T02:45:57.589Z,4.68
2022-08-25T02:48:24.650Z,4.57
2022-08-25T02:50:53.008Z,4.93
2022-08-25T02:53:21.746Z,4.68
2022-08-25T02:55:48.806Z,4.53
2022-08-25T02:58:16.251Z,4.82
2022-08-25T03:00:43.726Z,4.97
2022-08-25T03:03:10.893Z,4.85
2022-08-25T03:05:38.529Z,5.22
2022-08-25T03:08:07.355Z,4.50
2022-08-25T03:10:35.009Z,4.57
2022-08-25T03:13:02.202Z,4.80
2022-08-25T03:15:30.550Z,4.30
2022-08-25T03:17:59.953Z,4.70
2022-08-25T03:20:27.991Z,5.00
2022-08-25T03:22:55.381Z,4.20
2022-08-25T03:25:41.025Z,4.13
2022-08-25T03:28:08.609Z,4.20
2022-08-25T03:30:35.889Z,4.20
2022-08-25T03:33:03.900Z,4.68
2022-08-25T03:35:30.912Z,4.18
2022-08-25T03:38:00.810Z,4.13
2022-08-25T03:40:28.423Z,4.65
2022-08-25T03:42:56.796Z,4.35
2022-08-25T03:45:28.620Z,4.60
2022-08-25T03:47:55.684Z,4.60
2022-08-25T03:50:24.217Z,4.72
2022-08-25T03:52:57.097Z,4.30
2022-08-25T03:55:26.020Z,4.32
2022-08-25T03:57:55.115Z,4.57
2022-08-25T04:00:23.634Z,4.20
2022-08-25T04:02:50.718Z,4.72
2022-08-25T04:05:18.310Z,4.35
2022-08-25T04:07:46.303Z,4.15
2022-08-25T04:10:14.016Z,4.40
2022-08-25T04:12:41.770Z,4.78
2022-08-25T04:15:10.697Z,4.60
2022-08-25T04:17:40.102Z,4.65
2022-08-25T04:20:14.050Z,4.35
2022-08-25T04:22:41.678Z,4.63
2022-08-25T04:25:13.206Z,4.63
2022-08-25T04:27:40.957Z,4.13
2022-08-25T04:30:09.189Z,4.43
2022-08-25T04:32:38.061Z,4.60
2022-08-25T04:35:08.677Z,3.92
2022-08-25T04:37:35.955Z,4.00
2022-08-25T04:40:06.055Z,4.35
2022-08-25T04:42:33.768Z,4.38
2022-08-25T04:45:05.295Z,4.47
2022-08-25T04:47:37.660Z,3.75
2022-08-25T04:50:07.240Z,3.75
2022-08-25T04:52:34.665Z,4.13
2022-08-25T04:55:07.612Z,4.50
2022-08-25T04:57:37.590Z,3.80
2022-08-25T05:00:06.102Z,3.70
2022-08-25T05:02:33.232Z,4.07
2022-08-25T05:05:07.069Z,3.90
2022-08-25T05:07:34.223Z,3.95
2022-08-25T05:10:01.297Z,3.97
2022-08-25T05:12:31.526Z,4.03
2022-08-25T05:15:26.646Z,4.15
2022-08-25T05:17:56.012Z,3.85
2022-08-25T05:20:24.974Z,4.07
2022-08-25T05:22:52.934Z,4.28
2022-08-25T05:25:19.943Z,4.25
2022-08-25T05:27:47.301Z,3.53
2022-08-25T05:30:14.402Z,4.20
2022-08-25T05:32:41.648Z,4.18
2022-08-25T05:35:09.206Z,3.80
2022-08-25T05:37:37.997Z,3.80
2022-08-25T05:40:08.162Z,4.15
2022-08-25T05:42:36.089Z,4.35
2022-08-25T05:45:05.116Z,3.90
2022-08-25T05:47:32.775Z,3.70
2022-08-25T05:50:02.900Z,3.38
2022-08-25T05:52:29.966Z,3.13
2022-08-25T05:54:57.290Z,3.80
2022-08-25T05:57:26.889Z,3.83
2022-08-25T05:59:53.892Z,3.50
2022-08-25T06:02:56.323Z,3.72
2022-08-25T06:05:23.932Z,3.38
2022-08-25T06:07:52.857Z,3.50
2022-08-25T06:10:20.310Z,3.38
2022-08-25T06:12:47.778Z,4.00
2022-08-25T06:15:22.645Z,3.30
2022-08-25T06:17:52.031Z,3.58
2022-08-25T06:20:26.281Z,3.20
2022-08-25T06:22:54.313Z,3.38
2022-08-25T06:25:25.375Z,3.30
2022-08-25T06:27:54.498Z,3.10
2022-08-25T06:30:28.728Z,3.20
2022-08-25T06:32:56.999Z,2.97
2022-08-25T06:35:24.041Z,3.50
2022-08-25T06:37:51.022Z,3.53
2022-08-25T06:40:18.261Z,3.55
2022-08-25T06:42:49.622Z,3.42
2022-08-25T06:45:18.679Z,3.22
2022-08-25T06:47:45.735Z,3.33
2022-08-25T06:50:12.694Z,3.00
2022-08-25T06:52:39.758Z,3.10
2022-08-25T06:55:07.159Z,3.20
2022-08-25T06:57:35.820Z,3.00
2022-08-25T07:00:08.008Z,2.88
2022-08-25T07:02:35.391Z,2.83
2022-08-25T07:05:04.585Z,2.92
2022-08-25T07:07:43.105Z,3.20
2022-08-25T07:10:13.108Z,2.97
2022-08-25T07:12:40.774Z,2.85
2022-08-25T07:15:19.943Z,2.90
2022-08-25T07:17:48.366Z,2.60
2022-08-25T07:20:19.240Z,2.97
2022-08-25T07:22:47.938Z,3.08
2022-08-25T07:25:15.015Z,2.80
2022-08-25T07:27:45.312Z,2.70
2022-08-25T07:30:12.326Z,2.70
2022-08-25T07:32:43.025Z,3.20
2022-08-25T07:35:19.025Z,3.00
2022-08-25T07:37:59.302Z,2.80
2022-08-25T07:40:32.193Z,2.90
2022-08-25T07:43:04.980Z,3.10
2022-08-25T07:45:38.155Z,2.67
2022-08-25T07:48:19.947Z,2.97
2022-08-25T07:50:48.653Z,2.83
2022-08-25T07:53:18.043Z,2.95
2022-08-25T07:55:45.444Z,2.85
2022-08-25T07:58:15.748Z,3.22
2022-08-25T08:00:43.282Z,3.25
2022-08-25T08:03:19.906Z,2.90
2022-08-25T08:05:59.063Z,2.70
2022-08-25T08:08:26.143Z,2.97
2022-08-25T08:11:04.356Z,3.40
2022-08-25T08:13:36.825Z,3.15
2022-08-25T08:16:17.397Z,2.78
2022-08-25T08:18:46.162Z,2.97
2022-08-25T08:21:28.293Z,2.75
2022-08-25T08:23:59.092Z,2.53
2022-08-25T08:26:48.150Z,2.58
2022-08-25T08:29:16.412Z,2.50
2022-08-25T08:31:48.455Z,2.50
2022-08-25T08:34:17.394Z,2.10
2022-08-25T08:36:45.613Z,2.28
2022-08-25T08:39:12.661Z,2.10
2022-08-25T08:42:28.095Z,2.47
2022-08-25T08:45:24.171Z,3.22
2022-08-25T08:48:06.645Z,2.90
2022-08-25T08:51:04.575Z,2.28
2022-08-25T08:54:01.441Z,2.33
2022-08-25T08:56:45.309Z,2.15
2022-08-25T08:59:30.228Z,2.20
2022-08-25T09:02:15.716Z,2.58
2022-08-25T09:05:10.888Z,2.45
2022-08-25T09:08:05.568Z,2.47
2022-08-25T09:11:10.292Z,2.70
2022-08-25T09:14:30.637Z,2.30
2022-08-25T09:17:17.439Z,2.10
2022-08-25T09:20:29.245Z,2.42
2022-08-25T09:23:11.431Z,2.00
2022-08-25T09:26:00.571Z,2.40
2022-08-25T09:28:38.645Z,1.98
2022-08-25T09:31:35.782Z,2.22
2022-08-25T09:34:11.674Z,2.00
2022-08-25T09:36:39.812Z,2.25
2022-08-25T09:39:09.948Z,2.10
2022-08-25T09:41:56.345Z,2.00
2022-08-25T09:44:26.947Z,2.13
2022-08-25T09:47:02.056Z,2.10
2022-08-25T09:49:43.205Z,2.17
2022-08-25T09:52:32.613Z,2.08
2022-08-25T09:55:29.616Z,2.10
2022-08-25T09:58:13.271Z,2.05
2022-08-25T10:00:40.226Z,1.65
2022-08-25T10:03:22.882Z,2.10
2022-08-25T10:06:13.180Z,1.98
2022-08-25T10:08:43.653Z,1.80
2022-08-25T10:11:15.423Z,2.03
2022-08-25T10:13:51.387Z,2.10
2022-08-25T10:16:36.062Z,1.90
2022-08-25T10:19:13.429Z,2.20
2022-08-25T10:21:43.060Z,2.13
2022-08-25T10:24:13.311Z,1.88
2022-08-25T10:27:16.918Z,1.88
2022-08-25T10:30:05.726Z,1.70
2022-08-25T10:32:52.445Z,1.98
2022-08-25T10:35:41.106Z,1.88
2022-08-25T10:38:36.376Z,2.15
2022-08-25T10:41:25.819Z,1.80
2022-08-25T10:44:35.652Z,1.90
2022-08-25T10:47:38.481Z,1.90
2022-08-25T10:50:33.553Z,1.90
2022-08-25T10:53:47.995Z,2.33
2022-08-25T10:56:43.401Z,1.98
2022-08-25T10:59:32.565Z,2.33
2022-08-25T11:02:27.155Z,2.30
2022-08-25T11:05:11.431Z,2.00
2022-08-25T11:07:46.433Z,2.05
2022-08-25T11:10:40.589Z,1.92
2022-08-25T11:13:17.777Z,2.45
2022-08-25T11:16:19.457Z,2.35
2022-08-25T11:19:32.804Z,2.00
2022-08-25T11:22:28.439Z,1.70
2022-08-25T11:25:16.299Z,2.05
2022-08-25T11:31:08.427Z,1.98
2022-08-25T11:33:36.462Z,2.33
2022-08-25T11:36:29.652Z,2.20
2022-08-25T11:39:05.667Z,1.90
2022-08-25T11:42:03.593Z,1.80
2022-08-25T11:45:07.915Z,1.80
2022-08-25T11:47:47.399Z,1.88
2022-08-25T11:50:31.674Z,1.80
2022-08-25T11:53:31.619Z,2.15
2022-08-25T11:56:10.013Z,1.83
2022-08-25T11:58:51.905Z,1.80
2022-08-25T12:01:40.483Z,1.85
2022-08-25T12:04:44.788Z,1.83
2022-08-25T12:07:19.669Z,1.60
2022-08-25T12:09:55.970Z,1.67
2022-08-25T12:12:41.785Z,1.70
2022-08-25T12:15:25.528Z,1.58
2022-08-25T12:18:21.860Z,1.58
2022-08-25T12:20:57.577Z,1.85
2022-08-25T12:23:37.855Z,1.60
2022-08-25T12:26:42.102Z,1.60
2022-08-25T12:29:50.724Z,1.63
2022-08-25T12:32:23.591Z,1.63
2022-08-25T12:35:32.476Z,1.75
2022-08-25T12:38:13.771Z,1.90
2022-08-25T12:40:43.880Z,1.80
2022-08-25T12:43:42.361Z,1.83
2022-08-25T12:46:27.630Z,1.63
2022-08-25T12:49:15.045Z,1.90
2022-08-25T12:51:54.687Z,1.63
2022-08-25T12:54:36.265Z,1.92
2022-08-25T12:57:46.120Z,1.90
2022-08-25T13:00:23.685Z,1.80
2022-08-25T13:06:37.919Z,1.80
2022-08-25T13:09:23.381Z,2.17
2022-08-25T13:12:20.053Z,1.77
2022-08-25T13:14:55.559Z,1.70
2022-08-25T13:17:33.780Z,1.83
2022-08-25T13:20:24.381Z,1.77
2022-08-25T13:22:58.881Z,1.67
2022-08-25T13:25:32.728Z,1.80
2022-08-25T13:28:06.394Z,2.00
2022-08-25T13:30:39.187Z,1.73
2022-08-25T13:33:23.751Z,1.92
2022-08-25T13:36:16.613Z,2.00
2022-08-25T13:38:47.013Z,2.03
2022-08-25T13:41:28.960Z,1.80
2022-08-25T13:44:02.602Z,1.90
2022-08-25T13:46:31.713Z,2.10
2022-08-25T13:49:06.147Z,1.90
2022-08-25T13:51:33.879Z,1.75
2022-08-25T13:54:08.887Z,1.92
2022-08-25T13:56:41.844Z,1.80
2022-08-25T13:59:33.145Z,1.90
2022-08-25T14:02:00.809Z,1.60
2022-08-25T14:04:51.559Z,2.00
2022-08-25T14:07:34.433Z,1.80
2022-08-25T14:10:30.788Z,1.75
2022-08-25T14:13:31.994Z,1.90
2022-08-25T14:16:22.774Z,1.80
2022-08-25T14:18:58.824Z,1.90
2022-08-25T14:21:31.436Z,1.92
2022-08-25T14:24:02.715Z,2.00
2022-08-25T14:26:30.477Z,1.90
2022-08-25T14:28:57.759Z,2.40
2022-08-25T14:31:33.939Z,1.85
2022-08-25T14:34:09.859Z,1.95
2022-08-25T14:36:39.550Z,1.85
2022-08-25T14:39:08.759Z,2.00
2022-08-25T14:41:40.760Z,2.10
2022-08-25T14:44:10.608Z,1.90
2022-08-25T14:46:45.943Z,2.10
2022-08-25T14:49:24.682Z,1.92
2022-08-25T14:51:53.354Z,1.80
2022-08-25T14:54:25.524Z,1.77
2022-08-25T14:56:53.016Z,2.22
2022-08-25T14:59:20.078Z,1.98
2022-08-25T15:01:47.541Z,2.00
2022-08-25T15:04:27.425Z,2.10
2022-08-25T15:07:01.704Z,1.85
2022-08-25T15:09:33.669Z,1.90
2022-08-25T15:12:01.070Z,1.70
2022-08-25T15:14:28.917Z,2.03
2022-08-25T15:17:04.190Z,1.80
2022-08-25T15:19:34.594Z,2.10
2022-08-25T15:22:01.554Z,2.30
2022-08-25T15:24:29.733Z,1.85
2022-08-25T15:27:05.079Z,1.90
2022-08-25T15:29:34.858Z,1.92
2022-08-25T15:32:07.368Z,1.95
2022-08-25T15:34:35.932Z,1.73
2022-08-25T15:37:20.959Z,1.73
2022-08-25T15:39:50.906Z,2.10
2022-08-25T15:42:18.393Z,1.70
2022-08-25T15:44:53.095Z,1.90
2022-08-25T15:47:22.456Z,2.10
2022-08-25T15:49:50.152Z,2.08
2022-08-25T15:52:17.435Z,1.83
2022-08-25T15:54:45.131Z,2.08
2022-08-25T15:57:16.273Z,2.20
2022-08-25T15:59:55.408Z,1.90
2022-08-25T16:02:38.642Z,2.00
2022-08-25T16:05:13.470Z,2.05
2022-08-25T16:07:51.842Z,2.03
2022-08-25T16:10:21.895Z,2.20
2022-08-25T16:12:49.309Z,2.03
2022-08-25T16:15:16.323Z,2.20
2022-08-25T16:17:45.954Z,2.63
2022-08-25T16:20:17.232Z,2.17
2022-08-25T16:22:45.114Z,2.30
2022-08-25T16:25:14.888Z,2.13
2022-08-25T16:27:44.503Z,1.70
2022-08-25T16:30:17.745Z,1.88
2022-08-25T16:32:46.682Z,2.13
2022-08-25T16:35:14.173Z,2.10
2022-08-25T16:37:50.473Z,1.90
2022-08-25T16:40:24.948Z,2.35
2022-08-25T16:42:55.109Z,2.20
2022-08-25T16:45:22.487Z,2.50
2022-08-25T16:47:51.806Z,2.30
2022-08-25T16:50:19.143Z,2.20
2022-08-25T16:53:08.236Z,2.50
2022-08-25T16:55:39.280Z,2.25
2022-08-25T16:58:07.772Z,2.10
2022-08-25T17:00:44.624Z,2.22
2022-08-25T17:03:13.129Z,2.35
2022-08-25T17:05:42.905Z,2.28
2022-08-25T17:08:28.897Z,2.55
2022-08-25T17:11:26.960Z,2.25
2022-08-25T17:14:00.714Z,1.95
2022-08-25T17:16:35.581Z,2.20
2022-08-25T17:19:12.906Z,2.45
2022-08-25T17:21:46.159Z,2.13
2022-08-25T17:24:15.247Z,2.40
2022-08-25T17:26:43.959Z,2.17
2022-08-25T17:29:11.963Z,2.10
2022-08-25T17:31:40.170Z,2.25
2022-08-25T17:34:16.303Z,2.10
2022-08-25T17:36:47.287Z,2.03
2022-08-25T17:39:17.971Z,2.55
2022-08-25T17:41:46.122Z,2.45
2022-08-25T17:44:14.061Z,2.35
2022-08-25T17:46:47.390Z,2.10
2022-08-25T17:49:18.525Z,2.72
2022-08-25T17:51:48.558Z,1.95
2022-08-25T17:54:16.605Z,2.53
2022-08-25T17:56:43.777Z,2.33
2022-08-25T17:59:12.983Z,2.75
2022-08-25T18:01:42.024Z,2.38
2022-08-25T18:04:17.311Z,2.47
2022-08-25T18:06:50.513Z,2.45
2022-08-25T18:09:18.388Z,2.10
2022-08-25T18:11:46.527Z,2.25
2022-08-25T18:14:16.549Z,2.30
2022-08-25T18:16:45.460Z,2.70
2022-08-25T18:19:14.546Z,2.60
2022-08-25T18:21:43.982Z,2.78
2022-08-25T18:24:11.525Z,3.00
2022-08-25T18:26:42.169Z,3.22
2022-08-25T18:29:14.209Z,3.40
2022-08-25T18:31:45.843Z,3.65
2022-08-25T18:34:15.919Z,3.90
2022-08-25T18:36:43.066Z,3.60
2022-08-25T18:39:34.504Z,3.08
2022-08-25T18:42:05.589Z,3.47
2022-08-25T18:44:33.213Z,3.55
2022-08-25T18:47:07.531Z,3.70
2022-08-25T18:49:38.432Z,4.38
2022-08-25T18:52:08.018Z,4.57
2022-08-25T18:54:39.148Z,4.55
2022-08-25T18:57:08.732Z,4.82
2022-08-25T18:59:37.167Z,4.57
2022-08-25T19:02:05.497Z,4.63
2022-08-25T19:04:33.354Z,4.60
2022-08-25T19:07:04.969Z,4.30
2022-08-25T19:09:38.508Z,4.50
2022-08-25T19:12:11.798Z,4.72
2022-08-25T19:14:56.723Z,4.70
2022-08-25T19:17:24.736Z,4.50
2022-08-25T19:19:51.983Z,4.55
2022-08-25T19:22:40.227Z,5.22
2022-08-25T19:25:08.038Z,6.30
2022-08-25T19:27:36.602Z,7.13
2022-08-25T19:30:09.007Z,7.30
2022-08-25T19:32:42.469Z,7.30
2022-08-25T19:35:34.270Z,8.43
2022-08-25T19:38:02.876Z,8.18
2022-08-25T19:40:35.482Z,7.25
2022-08-25T19:43:02.972Z,8.70
2022-08-25T19:45:31.633Z,10.50
2022-08-25T19:48:00.592Z,11.45
2022-08-25T19:50:28.053Z,11.23
2022-08-25T19:52:55.098Z,10.63
2022-08-25T19:55:24.809Z,11.13
2022-08-25T19:57:52.350Z,9.93
2022-08-25T20:00:32.569Z,12.32
2022-08-25T20:03:02.217Z,14.95
2022-08-25T20:05:30.340Z,17.00
2022-08-25T20:08:00.578Z,16.40
2022-08-25T20:10:36.658Z,15.32
2022-08-25T20:13:09.238Z,18.90
2022-08-25T20:15:39.147Z,21.38
2022-08-25T20:18:06.777Z,21.67
2022-08-25T20:20:35.465Z,22.33
2022-08-25T20:23:22.819Z,21.40
2022-08-25T20:25:50.262Z,24.08
2022-08-25T20:28:18.778Z,28.55
2022-08-25T20:30:46.785Z,22.33
2022-08-25T20:33:13.896Z,21.00
2022-08-25T20:35:50.268Z,21.10
2022-08-25T20:38:20.553Z,20.25
2022-08-25T20:40:47.529Z,20.52
2022-08-25T20:43:15.912Z,20.33
2022-08-25T20:45:43.558Z,18.75
2022-08-25T20:48:10.515Z,18.17
2022-08-25T20:50:41.114Z,18.65
2022-08-25T20:53:10.254Z,19.50
2022-08-25T20:55:43.865Z,17.45
2022-08-25T20:58:13.006Z,16.52
2022-08-25T21:00:46.032Z,17.73
2022-08-25T21:03:13.083Z,16.35
2022-08-25T21:05:42.181Z,14.60
2022-08-25T21:08:10.255Z,13.25
2022-08-25T21:10:38.019Z,14.02
2022-08-25T21:13:05.060Z,11.95
2022-08-25T21:15:32.044Z,13.60
2022-08-25T21:17:59.014Z,11.88
2022-08-25T21:20:26.983Z,11.02
2022-08-25T21:22:54.476Z,13.70
2022-08-25T21:25:25.112Z,11.63
2022-08-25T21:27:52.213Z,10.45
2022-08-25T21:30:19.445Z,10.30
2022-08-25T21:32:53.264Z,9.52
2022-08-25T21:35:23.118Z,8.95
2022-08-25T21:37:53.006Z,9.68
2022-08-25T21:40:22.896Z,9.55
2022-08-25T21:42:51.259Z,12.32
2022-08-25T21:45:20.908Z,10.73
2022-08-25T21:47:49.269Z,9.13
2022-08-25T21:50:16.387Z,12.23
2022-08-25T21:52:43.415Z,10.27
2022-08-25T21:55:15.774Z,9.55
2022-08-25T21:57:43.957Z,10.88
2022-08-25T22:00:13.474Z,11.60
2022-08-25T22:02:40.527Z,11.52
2022-08-25T22:05:11.637Z,10.80
2022-08-25T22:07:44.046Z,13.55
2022-08-25T22:10:16.707Z,10.93
2022-08-25T22:12:47.134Z,10.57
2022-08-25T22:15:17.956Z,10.07
2022-08-25T22:17:47.962Z,9.90
2022-08-25T22:20:17.314Z,11.25
2022-08-25T22:22:44.295Z,9.73
2022-08-25T22:25:13.011Z,10.30
2022-08-25T22:27:40.083Z,9.93
2022-08-25T22:30:08.440Z,10.00
2022-08-25T22:32:35.683Z,10.05
2022-08-25T22:35:02.936Z,10.10
2022-08-25T22:37:30.664Z,9.75
2022-08-25T22:39:57.775Z,10.55
2022-08-25T22:42:25.656Z,10.57
2022-08-25T22:44:53.861Z,10.05
2022-08-25T22:47:21.561Z,10.48
2022-08-25T22:49:49.120Z,11.40
2022-08-25T22:52:18.990Z,9.20
2022-08-25T22:54:46.071Z,8.50
2022-08-25T22:57:13.846Z,9.15
2022-08-25T22:59:41.114Z,8.27
2022-08-25T23:02:08.777Z,7.35
2022-08-25T23:04:41.141Z,6.75
2022-08-25T23:07:08.818Z,6.70
2022-08-25T23:09:37.323Z,5.55
2022-08-25T23:12:04.960Z,5.18
2022-08-25T23:14:37.206Z,4.80
2022-08-25T23:17:07.589Z,4.93
2022-08-25T23:19:35.719Z,4.25
2022-08-25T23:22:12.539Z,3.83
2022-08-25T23:24:47.252Z,4.07
2022-08-25T23:27:20.365Z,3.22
2022-08-25T23:29:49.715Z,3.42
2022-08-25T23:32:18.321Z,3.70
2022-08-25T23:34:46.804Z,3.35
2022-08-25T23:37:15.202Z,3.03
2022-08-25T23:39:45.407Z,3.38
2022-08-25T23:42:12.590Z,3.60
2022-08-25T23:44:39.507Z,3.35
2022-08-25T23:47:12.039Z,2.97
2022-08-25T23:49:39.794Z,2.72
2022-08-25T23:52:07.189Z,3.00
2022-08-25T23:54:34.255Z,3.30
2022-08-25T23:57:01.502Z,3.45
2022-08-25T23:59:29.209Z,3.20
